Time;durP1;ratioP1;P1;durP2;ratioP2;P2;SDS_P1;SDS_P2;PMS_P1;PMS_P2;Temp;Humidity;BMP_temperature;BMP_pressure;BME280_temperature;BME280_humidity;BME280_pressure;Samples;Min_cycle;Max_cycle;Signal;HPM_P1;HPM_P2
2023/07/30 00:02:23;;;;;;;0.20;0.20;;;;;;;19.71;100.00;98781.66;7394907;19;20018;-61
2023/07/30 00:04:50;;;;;;;0.20;0.20;;;;;;;19.60;100.00;98772.22;7395571;19;20373;-59
2023/07/30 00:07:17;;;;;;;0.10;0.10;;;;;;;20.47;100.00;98754.81;7394566;19;20018;-59
2023/07/30 00:09:43;;;;;;;7.13;0.40;;;;;;;19.74;100.00;98767.16;7393065;19;20015;-60
2023/07/30 00:12:09;;;;;;;3.10;1.65;;;;;;;24.74;100.00;98747.44;7395982;19;20017;-60
2023/07/30 00:14:36;;;;;;;0.93;0.28;;;;;;;19.38;100.00;98767.28;7394434;19;20018;-60
2023/07/30 00:17:02;;;;;;;2.70;0.30;;;;;;;22.48;100.00;98763.81;7393908;19;20034;-60
2023/07/30 00:19:28;;;;;;;1.33;0.25;;;;;;;18.75;100.00;98773.88;7398360;19;20081;-60
2023/07/30 00:21:55;;;;;;;0.93;0.30;;;;;;;18.41;100.00;98774.06;7391151;19;20011;-60
2023/07/30 00:24:21;;;;;;;0.77;0.25;;;;;;;21.26;100.00;98762.59;7394401;19;20010;-60
2023/07/30 00:26:47;;;;;;;0.10;0.10;;;;;;;18.42;100.00;98767.13;7393977;19;20014;-60
2023/07/30 00:29:13;;;;;;;8.63;0.98;;;;;;;18.07;100.00;98771.41;7398437;19;20011;-60
2023/07/30 00:31:39;;;;;;;0.50;0.50;;;;;;;18.14;100.00;98776.34;7392548;19;20011;-60
2023/07/30 00:34:05;;;;;;;2.08;0.43;;;;;;;18.21;100.00;98777.72;7392030;19;20038;-60
2023/07/30 00:36:32;;;;;;;0.17;0.17;;;;;;;19.95;100.00;98775.41;7392580;19;20381;-60
2023/07/30 00:38:59;;;;;;;3.70;0.30;;;;;;;32.46;59.46;98767.84;7391437;19;20018;-60
2023/07/30 00:41:25;;;;;;;0.40;0.30;;;;;;;36.50;46.89;98746.72;7392149;19;20078;-60
2023/07/30 00:43:51;;;;;;;5.47;0.80;;;;;;;39.48;39.04;98755.84;7394131;19;20021;-60
2023/07/30 00:46:17;;;;;;;0.85;0.38;;;;;;;25.69;67.06;98768.53;7392529;19;20014;-60
2023/07/30 00:48:44;;;;;;;0.50;0.50;;;;;;;20.43;100.00;98774.25;7395814;19;20017;-60
2023/07/30 00:51:13;;;;;;;2.08;0.52;;;;;;;21.35;100.00;98764.03;7391443;19;20014;-60
2023/07/30 00:53:39;;;;;;;4.55;1.15;;;;;;;19.08;100.00;98772.13;7390273;19;20425;-60
2023/07/30 00:56:06;;;;;;;0.80;0.20;;;;;;;18.50;100.00;98779.22;7392540;19;20411;-60
2023/07/30 00:58:33;;;;;;;0.85;0.40;;;;;;;18.27;100.00;98777.56;7394835;19;20017;-61
2023/07/30 01:01:00;;;;;;;0.10;0.10;;;;;;;18.49;100.00;98782.59;7393199;19;20019;-60
2023/07/30 01:03:26;;;;;;;5.78;0.65;;;;;;;18.23;100.00;98777.16;7393600;19;20033;-60
2023/07/30 01:05:53;;;;;;;1.48;0.40;;;;;;;18.23;100.00;98774.34;7391963;19;20501;-60
2023/07/30 01:08:19;;;;;;;1.30;0.47;;;;;;;18.26;100.00;98782.44;7392920;19;20020;-60
2023/07/30 01:10:46;;;;;;;6.57;0.77;;;;;;;18.67;100.00;98781.53;7390725;19;20011;-60
2023/07/30 01:13:15;;;;;;;1.65;0.52;;;;;;;21.14;100.00;98779.25;7396459;19;20082;-60
2023/07/30 01:15:42;;;;;;;6.05;0.60;;;;;;;20.24;100.00;98788.06;7392855;19;20026;-61
2023/07/30 01:18:08;;;;;;;0.35;0.30;;;;;;;18.40;100.00;98791.53;7393025;19;20018;-61
2023/07/30 01:20:35;;;;;;;5.57;1.40;;;;;;;17.46;100.00;98786.28;7392837;19;20021;-60
2023/07/30 01:23:01;;;;;;;0.95;0.60;;;;;;;17.55;100.00;98780.19;7394932;19;20015;-60
2023/07/30 01:25:30;;;;;;;1.30;0.38;;;;;;;17.81;100.00;98780.06;7389284;19;20360;-59
2023/07/30 01:28:00;;;;;;;0.30;0.22;;;;;;;17.83;100.00;98780.25;7390485;19;20048;-59
2023/07/30 01:30:30;;;;;;;0.30;0.28;;;;;;;17.82;100.00;98787.19;7389942;19;20828;-60
2023/07/30 01:32:58;;;;;;;1.65;0.52;;;;;;;31.35;78.97;98757.03;7388609;19;20017;-60
2023/07/30 01:35:28;;;;;;;4.35;0.50;;;;;;;33.46;64.29;98759.78;7399501;19;20482;-59
2023/07/30 01:37:55;;;;;;;0.47;0.28;;;;;;;36.96;48.65;98753.75;7398883;19;20015;-60
2023/07/30 01:40:22;;;;;;;0.75;0.50;;;;;;;35.93;46.73;98761.03;7400451;19;20014;-59
2023/07/30 01:42:51;;;;;;;0.20;0.10;;;;;;;21.21;100.00;98789.03;7401164;19;20006;-59
2023/07/30 01:45:18;;;;;;;0.20;0.17;;;;;;;19.05;100.00;98799.38;7396982;19;20010;-60
2023/07/30 01:47:44;;;;;;;0.17;0.15;;;;;;;18.28;100.00;98796.00;7399164;19;20018;-59
2023/07/30 01:50:10;;;;;;;13.30;0.68;;;;;;;30.60;82.23;98767.00;7397329;19;20034;-60
2023/07/30 01:52:37;;;;;;;0.20;0.20;;;;;;;32.49;65.46;98772.31;7394583;19;20035;-59
2023/07/30 01:55:03;;;;;;;4.38;0.40;;;;;;;36.67;47.40;98766.03;7397234;19;20031;-60
2023/07/30 01:57:29;;;;;;;3.17;0.85;;;;;;;37.49;43.01;98766.63;7398377;19;20014;-60
2023/07/30 01:59:55;;;;;;;1.35;0.82;;;;;;;38.34;40.00;98769.16;7396106;19;20011;-60
2023/07/30 02:02:22;;;;;;;2.08;0.43;;;;;;;38.72;38.16;98766.25;7395342;19;21063;-59
2023/07/30 02:04:48;;;;;;;0.20;0.20;;;;;;;38.45;38.11;98773.72;7398668;19;20578;-61
2023/07/30 02:07:14;;;;;;;0.10;0.10;;;;;;;38.72;36.82;98772.81;7398044;19;20435;-59
2023/07/30 02:09:40;;;;;;;1.20;0.30;;;;;;;34.39;44.68;98775.56;7398286;19;20020;-60
2023/07/30 02:12:07;;;;;;;3.47;0.43;;;;;;;38.76;36.74;98772.13;7398757;19;20014;-60
2023/07/30 02:14:34;;;;;;;5.22;0.90;;;;;;;25.06;64.56;98800.34;7397123;19;20014;-60
2023/07/30 02:17:02;;;;;;;2.60;0.93;;;;;;;21.05;100.00;98805.34;7396502;19;20125;-60
2023/07/30 02:19:28;;;;;;;0.38;0.28;;;;;;;19.88;100.00;98804.44;7402520;19;20011;-60
2023/07/30 02:21:54;;;;;;;8.18;0.43;;;;;;;17.98;100.00;98814.19;7397837;19;20463;-60
2023/07/30 02:24:20;;;;;;;15.73;0.63;;;;;;;16.96;100.00;98812.00;7398212;19;20010;-59
2023/07/30 02:26:48;;;;;;;0.40;0.32;;;;;;;16.81;100.00;98817.44;7397248;19;20023;-60
2023/07/30 02:29:14;;;;;;;2.67;0.57;;;;;;;17.13;100.00;98815.22;7402107;19;20070;-60
2023/07/30 02:31:40;;;;;;;8.95;0.80;;;;;;;17.01;100.00;98809.06;7397663;19;20018;-60
2023/07/30 02:34:07;;;;;;;0.10;0.10;;;;;;;17.30;100.00;98812.78;7395359;19;20012;-60
2023/07/30 02:36:33;;;;;;;0.30;0.20;;;;;;;18.45;100.00;98804.75;7396854;19;20399;-60
2023/07/30 02:39:00;;;;;;;3.95;0.30;;;;;;;17.43;100.00;98805.00;7399529;19;20018;-61
2023/07/30 02:41:27;;;;;;;0.10;0.10;;;;;;;17.21;100.00;98810.44;7397621;19;20344;-61
2023/07/30 02:43:53;;;;;;;6.72;0.40;;;;;;;17.69;100.00;98797.78;7401218;19;20053;-61
2023/07/30 02:46:19;;;;;;;0.40;0.13;;;;;;;16.84;100.00;98791.06;7394813;19;20027;-60
2023/07/30 02:48:45;;;;;;;0.10;0.10;;;;;;;16.73;100.00;98794.88;7399833;19;20007;-60
2023/07/30 02:51:11;;;;;;;0.43;0.10;;;;;;;17.60;100.00;98799.03;7396684;19;20007;-60
2023/07/30 02:53:37;;;;;;;4.13;0.52;;;;;;;17.30;100.00;98804.34;7395519;19;20035;-60
2023/07/30 02:56:03;;;;;;;0.20;0.20;;;;;;;19.29;100.00;98801.72;7395941;19;20467;-60
2023/07/30 02:58:29;;;;;;;4.05;0.50;;;;;;;18.98;100.00;98805.00;7397760;19;20052;-61
2023/07/30 03:01:05;;;;;;;0.68;0.25;;;;;;;19.57;100.00;98807.25;7394904;19;20014;-60
2023/07/30 03:03:31;;;;;;;0.10;0.03;;;;;;;19.35;100.00;98805.16;7395388;19;20090;-61
2023/07/30 03:05:57;;;;;;;4.20;0.50;;;;;;;19.98;100.00;98805.38;7395706;19;20007;-60
2023/07/30 03:08:23;;;;;;;1.88;0.30;;;;;;;19.52;100.00;98813.06;7396807;19;20021;-60
2023/07/30 03:10:49;;;;;;;1.05;0.77;;;;;;;19.19;100.00;98814.84;7394418;19;20015;-60
2023/07/30 03:13:15;;;;;;;1.70;0.28;;;;;;;17.37;100.00;98812.09;7398991;19;20320;-60
2023/07/30 03:15:42;;;;;;;0.10;0.00;;;;;;;16.23;100.00;98809.91;7396202;19;20070;-61
2023/07/30 03:18:08;;;;;;;0.10;0.10;;;;;;;16.95;100.00;98810.50;7397510;19;20070;-60
2023/07/30 03:20:34;;;;;;;2.20;0.35;;;;;;;16.56;100.00;98814.91;7394241;19;20010;-60
2023/07/30 03:23:00;;;;;;;3.63;0.60;;;;;;;17.31;100.00;98815.03;7395662;19;20013;-60
2023/07/30 03:25:26;;;;;;;0.55;0.30;;;;;;;17.60;100.00;98813.09;7399009;19;20007;-60
2023/07/30 03:27:52;;;;;;;0.10;0.10;;;;;;;17.71;100.00;98817.69;7399441;19;20010;-61
2023/07/30 03:30:18;;;;;;;1.55;0.73;;;;;;;17.88;100.00;98815.97;7397496;19;20011;-59
2023/07/30 03:32:44;;;;;;;0.30;0.20;;;;;;;17.62;100.00;98810.50;7398833;19;20027;-61
2023/07/30 03:35:11;;;;;;;2.15;0.30;;;;;;;17.18;100.00;98817.13;7398635;19;20030;-60
2023/07/30 03:37:37;;;;;;;0.82;0.40;;;;;;;17.53;100.00;98818.66;7397257;19;20444;-60
2023/07/30 03:40:05;;;;;;;0.75;0.30;;;;;;;18.32;100.00;98821.75;7393034;19;20066;-60
2023/07/30 03:42:31;;;;;;;1.50;0.60;;;;;;;17.89;100.00;98813.91;7396594;19;20014;-60
2023/07/30 03:44:57;;;;;;;4.20;0.30;;;;;;;17.90;100.00;98813.38;7392793;19;20007;-59
2023/07/30 03:47:23;;;;;;;0.13;0.13;;;;;;;17.88;100.00;98821.63;7392674;19;20090;-59
2023/07/30 03:49:50;;;;;;;0.10;0.10;;;;;;;16.76;100.00;98815.53;7392890;19;20080;-59
2023/07/30 03:52:17;;;;;;;0.10;0.10;;;;;;;16.36;100.00;98818.31;7392856;19;20010;-59
2023/07/30 03:54:43;;;;;;;1.35;0.38;;;;;;;16.93;100.00;98818.72;7393669;19;20075;-60
2023/07/30 03:57:09;;;;;;;1.30;0.30;;;;;;;17.19;100.00;98818.66;7392177;19;20485;-59
2023/07/30 03:59:35;;;;;;;0.63;0.30;;;;;;;16.44;100.00;98827.63;7392899;19;20018;-59
2023/07/30 04:02:02;;;;;;;0.30;0.30;;;;;;;16.26;100.00;98836.91;7393000;19;20025;-59
2023/07/30 04:04:28;;;;;;;2.90;0.30;;;;;;;16.16;100.00;98833.00;7393098;19;20018;-60
2023/07/30 04:06:54;;;;;;;6.90;0.60;;;;;;;16.13;100.00;98831.28;7391607;19;20015;-59
2023/07/30 04:09:20;;;;;;;0.20;0.20;;;;;;;16.45;100.00;98834.00;7396273;19;20019;-59
2023/07/30 04:11:46;;;;;;;0.40;0.32;;;;;;;16.38;100.00;98829.00;7395894;19;20014;-59
2023/07/30 04:14:12;;;;;;;0.10;0.00;;;;;;;15.98;100.00;98831.06;7393046;19;20023;-60
2023/07/30 04:16:38;;;;;;;0.15;0.15;;;;;;;15.84;100.00;98826.69;7394772;19;20468;-59
2023/07/30 04:19:05;;;;;;;1.23;0.25;;;;;;;15.79;100.00;98833.91;7395390;19;20851;-59
2023/07/30 04:21:31;;;;;;;0.10;0.10;;;;;;;16.60;100.00;98832.19;7390697;19;20018;-59
2023/07/30 04:23:57;;;;;;;0.60;0.60;;;;;;;15.88;100.00;98827.13;7393343;19;20021;-59
2023/07/30 04:26:23;;;;;;;2.75;0.75;;;;;;;15.50;100.00;98839.75;7392821;19;20031;-61
2023/07/30 04:28:49;;;;;;;0.40;0.22;;;;;;;15.65;100.00;98840.03;7397522;19;20360;-59
2023/07/30 04:31:15;;;;;;;1.60;0.28;;;;;;;15.30;100.00;98843.09;7391269;19;20014;-60
2023/07/30 04:33:42;;;;;;;1.00;0.45;;;;;;;16.44;100.00;98838.84;7389616;19;20012;-59
2023/07/30 04:36:08;;;;;;;0.90;0.73;;;;;;;16.87;100.00;98854.66;7390479;19;20105;-59
2023/07/30 04:38:36;;;;;;;5.57;0.30;;;;;;;16.74;100.00;98854.66;7392616;19;20018;-59
2023/07/30 04:41:02;;;;;;;4.78;0.20;;;;;;;16.62;100.00;98856.94;7392439;19;20074;-59
2023/07/30 04:43:30;;;;;;;0.15;0.15;;;;;;;15.06;100.00;98867.13;7394493;19;20010;-59
2023/07/30 04:45:57;;;;;;;0.22;0.22;;;;;;;15.10;100.00;98864.78;7391283;19;20015;-59
2023/07/30 04:48:24;;;;;;;2.65;0.20;;;;;;;15.14;100.00;98864.47;7393638;19;20070;-59
2023/07/30 04:50:50;;;;;;;0.10;0.00;;;;;;;15.84;100.00;98863.19;7391896;19;20475;-59
2023/07/30 04:53:18;;;;;;;0.10;0.10;;;;;;;15.78;100.00;98866.09;7390260;19;20011;-59
2023/07/30 04:55:45;;;;;;;0.10;0.10;;;;;;;16.09;100.00;98867.34;7391679;19;20018;-61
2023/07/30 04:58:11;;;;;;;2.47;0.32;;;;;;;16.45;100.00;98862.88;7393509;19;20011;-60
2023/07/30 05:00:37;;;;;;;0.25;0.22;;;;;;;16.36;100.00;98862.53;7391563;19;20123;-59
2023/07/30 05:03:03;;;;;;;0.50;0.40;;;;;;;16.89;100.00;98860.50;7391599;19;20010;-59
2023/07/30 05:05:29;;;;;;;0.10;0.10;;;;;;;17.29;100.00;98859.84;7393634;19;20010;-58
2023/07/30 05:07:55;;;;;;;0.32;0.10;;;;;;;16.53;100.00;98858.13;7393533;19;20343;-60
2023/07/30 05:10:22;;;;;;;0.13;0.03;;;;;;;16.89;100.00;98868.94;7400599;19;20018;-59
2023/07/30 05:12:48;;;;;;;0.10;0.10;;;;;;;18.13;100.00;98858.63;7403869;19;20471;-59
2023/07/30 05:15:14;;;;;;;0.68;0.40;;;;;;;18.23;100.00;98861.72;7400606;19;20015;-59
2023/07/30 05:17:40;;;;;;;0.10;0.10;;;;;;;18.55;100.00;98867.78;7399231;19;20011;-58
2023/07/30 05:20:07;;;;;;;5.30;0.38;;;;;;;18.46;100.00;98862.66;7399885;19;20015;-59
2023/07/30 05:22:33;;;;;;;0.47;0.43;;;;;;;18.66;100.00;98873.13;7399979;19;20014;-59
2023/07/30 05:24:59;;;;;;;5.35;0.28;;;;;;;18.80;100.00;98878.09;7400020;19;20019;-59
2023/07/30 05:27:28;;;;;;;3.75;0.63;;;;;;;18.96;100.00;98870.47;7398951;19;20011;-58
2023/07/30 05:29:55;;;;;;;0.82;0.30;;;;;;;18.79;100.00;98873.00;7399511;19;20006;-59
2023/07/30 05:32:21;;;;;;;1.98;0.38;;;;;;;18.56;100.00;98872.84;7399679;19;20018;-59
2023/07/30 05:34:47;;;;;;;0.45;0.22;;;;;;;18.68;100.00;98884.59;7398287;19;20011;-59
2023/07/30 05:37:13;;;;;;;1.48;0.40;;;;;;;18.59;100.00;98876.63;7401902;19;20040;-58
2023/07/30 05:39:40;;;;;;;1.40;0.68;;;;;;;18.72;100.00;98879.34;7398497;19;20431;-60
2023/07/30 05:42:06;;;;;;;0.80;0.38;;;;;;;19.53;100.00;98876.72;7398599;19;20015;-60
2023/07/30 05:44:32;;;;;;;0.10;0.10;;;;;;;19.11;100.00;98881.81;7399393;19;20007;-59
2023/07/30 05:46:58;;;;;;;2.75;0.47;;;;;;;18.96;100.00;98884.56;7399030;19;20003;-60
2023/07/30 05:49:24;;;;;;;0.25;0.20;;;;;;;18.71;100.00;98889.16;7396729;19;20019;-59
2023/07/30 05:51:51;;;;;;;4.03;0.52;;;;;;;18.71;100.00;98887.06;7401996;19;20103;-60
2023/07/30 05:54:17;;;;;;;0.20;0.20;;;;;;;18.34;100.00;98883.97;7396593;19;20034;-60
2023/07/30 05:56:44;;;;;;;1.17;0.08;;;;;;;18.78;100.00;98877.13;7399168;19;20016;-61
2023/07/30 05:59:10;;;;;;;4.55;0.60;;;;;;;19.09;100.00;98887.25;7398486;19;20007;-60
2023/07/30 06:01:36;;;;;;;0.20;0.20;;;;;;;17.64;100.00;98880.34;7400431;19;20032;-60
2023/07/30 06:04:02;;;;;;;3.72;0.35;;;;;;;18.14;100.00;98889.06;7398004;19;20015;-60
2023/07/30 06:06:29;;;;;;;0.25;0.13;;;;;;;18.90;100.00;98895.25;7397779;19;20014;-60
2023/07/30 06:08:55;;;;;;;0.38;0.28;;;;;;;17.95;100.00;98887.78;7398892;19;20030;-61
2023/07/30 06:11:22;;;;;;;0.22;0.08;;;;;;;18.57;100.00;98901.81;7400812;19;20373;-61
2023/07/30 06:13:48;;;;;;;0.20;0.20;;;;;;;18.18;100.00;98900.75;7400828;19;20082;-60
2023/07/30 06:16:14;;;;;;;2.35;0.30;;;;;;;18.78;100.00;98899.69;7398151;19;20010;-59
2023/07/30 06:18:41;;;;;;;0.68;0.40;;;;;;;18.69;100.00;98900.97;7398197;19;20455;-59
2023/07/30 06:21:07;;;;;;;0.10;0.10;;;;;;;18.96;100.00;98904.31;7400621;19;20021;-59
2023/07/30 06:23:33;;;;;;;0.22;0.10;;;;;;;19.27;100.00;98905.97;7397839;19;20026;-59
2023/07/30 06:25:59;;;;;;;0.90;0.32;;;;;;;18.94;100.00;98906.94;7396276;19;20356;-59
2023/07/30 06:28:25;;;;;;;0.45;0.10;;;;;;;19.22;100.00;98904.06;7397512;19;20035;-58
2023/07/30 06:30:52;;;;;;;0.80;0.50;;;;;;;19.37;100.00;98906.97;7399427;19;20501;-58
2023/07/30 06:33:18;;;;;;;0.50;0.50;;;;;;;19.32;100.00;98901.47;7396432;19;20007;-61
2023/07/30 06:35:44;;;;;;;0.08;0.00;;;;;;;19.83;100.00;98912.75;7397588;19;20400;-60
2023/07/30 06:38:10;;;;;;;0.10;0.10;;;;;;;19.65;100.00;98912.53;7395980;19;20010;-60
2023/07/30 06:40:36;;;;;;;0.20;0.20;;;;;;;19.25;100.00;98913.50;7399500;19;20014;-61
2023/07/30 06:43:02;;;;;;;6.13;0.52;;;;;;;19.40;100.00;98914.34;7399818;19;20034;-60
2023/07/30 06:45:28;;;;;;;1.02;0.32;;;;;;;19.58;100.00;98918.16;7397132;19;20029;-60
2023/07/30 06:47:54;;;;;;;0.10;0.00;;;;;;;19.46;100.00;98917.75;7396252;19;20074;-61
2023/07/30 06:50:20;;;;;;;1.08;0.30;;;;;;;19.62;100.00;98912.91;7398446;19;20015;-63
2023/07/30 06:52:47;;;;;;;2.53;0.17;;;;;;;20.01;100.00;98908.84;7396268;19;20035;-61
2023/07/30 06:55:13;;;;;;;0.47;0.20;;;;;;;20.16;100.00;98920.16;7396151;19;20048;-59
2023/07/30 06:57:39;;;;;;;3.63;0.32;;;;;;;19.68;100.00;98911.41;7396109;19;20017;-60
2023/07/30 07:00:06;;;;;;;3.13;0.65;;;;;;;19.75;100.00;98923.31;7397578;19;20355;-60
2023/07/30 07:02:32;;;;;;;0.10;0.10;;;;;;;20.12;100.00;98916.97;7397310;19;20006;-60
2023/07/30 07:04:58;;;;;;;0.25;0.25;;;;;;;21.26;100.00;98915.53;7397674;19;20010;-60
2023/07/30 07:07:25;;;;;;;0.08;0.00;;;;;;;20.98;100.00;98913.69;7396161;19;20006;-59
2023/07/30 07:09:51;;;;;;;2.05;0.40;;;;;;;20.53;100.00;98927.16;7396811;19;20019;-59
2023/07/30 07:12:17;;;;;;;0.10;0.10;;;;;;;21.73;100.00;98917.56;7399296;19;20014;-58
2023/07/30 07:14:43;;;;;;;0.00;0.00;;;;;;;21.59;100.00;98924.81;7396957;19;20022;-60
2023/07/30 07:17:09;;;;;;;0.55;0.25;;;;;;;21.58;100.00;98917.63;7395545;19;20006;-60
2023/07/30 07:19:36;;;;;;;0.70;0.15;;;;;;;25.76;100.00;98921.63;7396152;19;20011;-58
2023/07/30 07:22:04;;;;;;;0.10;0.10;;;;;;;34.85;62.31;98916.06;7400780;19;20043;-60
2023/07/30 07:24:30;;;;;;;0.10;0.00;;;;;;;37.66;48.01;98896.34;7394769;19;20014;-61
2023/07/30 07:26:57;;;;;;;0.15;0.00;;;;;;;34.44;51.16;98921.03;7395414;19;20014;-58
2023/07/30 07:29:23;;;;;;;0.35;0.35;;;;;;;40.36;39.02;98907.28;7395986;19;20340;-62
2023/07/30 07:31:49;;;;;;;7.68;0.85;;;;;;;25.13;81.64;98931.28;7398355;19;20015;-58
2023/07/30 07:34:15;;;;;;;0.10;0.00;;;;;;;22.41;100.00;98937.75;7391832;19;20014;-59
2023/07/30 07:36:41;;;;;;;0.20;0.20;;;;;;;22.41;100.00;98943.41;7393014;19;20015;-59
2023/07/30 07:39:07;;;;;;;1.73;0.08;;;;;;;21.33;100.00;98942.31;7392979;19;20359;-59
2023/07/30 07:41:34;;;;;;;0.47;0.17;;;;;;;21.53;100.00;98944.84;7397683;19;20006;-58
2023/07/30 07:44:00;;;;;;;0.45;0.10;;;;;;;23.69;100.00;98944.16;7399825;19;20530;-62
2023/07/30 07:46:27;;;;;;;0.10;0.10;;;;;;;20.93;100.00;98948.63;7395294;19;20630;-60
2023/07/30 07:48:53;;;;;;;0.10;0.00;;;;;;;20.79;100.00;98958.63;7395354;19;20143;-61
2023/07/30 07:51:19;;;;;;;0.47;0.45;;;;;;;21.07;100.00;98955.59;7397375;19;20467;-58
2023/07/30 07:53:46;;;;;;;0.75;0.20;;;;;;;20.31;100.00;98954.88;7392777;19;20027;-60
2023/07/30 07:56:12;;;;;;;0.88;0.20;;;;;;;22.77;100.00;98959.19;7392234;19;20039;-58
2023/07/30 07:58:38;;;;;;;3.35;0.45;;;;;;;20.12;100.00;98965.75;7394204;19;20031;-57
2023/07/30 08:01:05;;;;;;;0.20;0.10;;;;;;;19.73;100.00;98963.41;7394380;19;20093;-57
2023/07/30 08:03:31;;;;;;;0.10;0.10;;;;;;;20.24;100.00;98955.63;7394926;19;20066;-58
2023/07/30 08:05:57;;;;;;;2.97;0.20;;;;;;;20.40;100.00;98962.03;7393359;19;20014;-58
2023/07/30 08:08:25;;;;;;;0.50;0.08;;;;;;;21.26;100.00;98965.75;7394276;19;20017;-59
2023/07/30 08:10:52;;;;;;;0.47;0.10;;;;;;;21.05;100.00;98963.91;7396403;19;20038;-58
2023/07/30 08:13:18;;;;;;;3.30;0.57;;;;;;;21.53;100.00;98949.75;7398439;19;20037;-60
2023/07/30 08:15:44;;;;;;;0.10;0.10;;;;;;;20.20;100.00;98971.44;7395054;19;20018;-59
2023/07/30 08:18:10;;;;;;;0.10;0.00;;;;;;;21.41;100.00;98957.19;7392624;19;20015;-59
2023/07/30 08:20:37;;;;;;;0.10;0.00;;;;;;;20.95;100.00;98965.03;7395708;19;20110;-60
2023/07/30 08:23:03;;;;;;;0.75;0.52;;;;;;;21.07;100.00;98971.84;7394071;19;20015;-59
2023/07/30 08:25:29;;;;;;;0.75;0.57;;;;;;;20.95;100.00;98960.13;7393076;19;20034;-59
2023/07/30 08:27:55;;;;;;;0.10;0.10;;;;;;;20.95;100.00;98970.69;7393576;19;20486;-57
2023/07/30 08:30:21;;;;;;;0.00;0.00;;;;;;;22.92;100.00;98956.97;7393914;19;20475;-59
2023/07/30 08:32:48;;;;;;;2.72;0.25;;;;;;;23.55;100.00;98948.72;7392709;19;20018;-56
2023/07/30 08:35:14;;;;;;;7.90;0.20;;;;;;;21.93;100.00;98947.72;7394083;19;20024;-57
2023/07/30 08:37:40;;;;;;;0.10;0.10;;;;;;;22.39;100.00;98959.50;7394292;19;20371;-58
2023/07/30 08:40:07;;;;;;;1.75;0.80;;;;;;;24.58;100.00;98951.97;7393939;19;20006;-57
2023/07/30 08:42:33;;;;;;;0.10;0.10;;;;;;;25.63;96.60;98950.63;7394693;19;20011;-58
2023/07/30 08:45:07;;;;;;;0.20;0.10;;;;;;;27.16;96.66;98935.75;7400144;19;20117;-58
2023/07/30 08:47:35;;;;;;;1.95;0.50;;;;;;;29.47;66.77;98941.75;7399977;19;20351;-62
2023/07/30 08:50:01;;;;;;;2.30;0.38;;;;;;;35.44;52.13;98944.19;7400281;19;20389;-62
2023/07/30 08:52:29;;;;;;;0.00;0.00;;;;;;;33.92;49.41;98932.03;7401087;19;20019;-62
2023/07/30 08:54:58;;;;;;;8.48;0.25;;;;;;;31.41;67.41;98936.53;7401892;19;20046;-62
2023/07/30 08:57:25;;;;;;;0.22;0.10;;;;;;;38.31;41.19;98933.50;7401327;19;20011;-61
2023/07/30 09:00:02;;;;;;;5.28;0.65;;;;;;;38.62;39.58;98933.44;7400141;19;20014;-62
2023/07/30 09:02:38;;;;;;;0.20;0.17;;;;;;;30.27;51.46;98953.44;7399787;19;20007;-64
2023/07/30 09:05:06;;;;;;;0.08;0.00;;;;;;;31.78;52.69;98944.06;7400576;19;20313;-57
2023/07/30 09:07:32;;;;;;;0.00;0.00;;;;;;;27.42;61.68;98951.81;7399154;19;20084;-58
2023/07/30 09:09:59;;;;;;;0.30;0.00;;;;;;;29.69;58.91;98948.72;7398780;19;20010;-59
2023/07/30 09:12:32;;;;;;;0.08;0.00;;;;;;;26.16;66.40;98947.41;7400051;19;20043;-60
2023/07/30 09:15:00;;;;;;;0.00;0.00;;;;;;;27.30;75.58;98950.97;7401374;19;20007;-65
2023/07/30 09:17:26;;;;;;;0.10;0.05;;;;;;;23.45;94.72;98959.28;7399959;19;20018;-59
2023/07/30 09:19:52;;;;;;;1.65;0.30;;;;;;;23.26;98.16;98964.75;7397917;19;20025;-59
2023/07/30 09:22:30;;;;;;;0.00;0.00;;;;;;;30.33;70.99;98950.91;7400466;19;20014;-58
2023/07/30 09:24:57;;;;;;;1.75;0.25;;;;;;;24.45;89.26;98971.56;7400077;19;20047;-58
2023/07/30 09:27:26;;;;;;;0.63;0.20;;;;;;;23.77;100.00;98986.72;7400439;19;20474;-60
2023/07/30 09:29:54;;;;;;;0.10;0.10;;;;;;;23.32;100.00;98962.44;7399935;19;20027;-57
2023/07/30 09:32:20;;;;;;;4.28;0.73;;;;;;;23.73;100.00;98970.09;7399184;19;20011;-60
2023/07/30 09:34:47;;;;;;;0.35;0.08;;;;;;;24.00;100.00;98984.34;7396656;19;20031;-57
2023/07/30 09:37:14;;;;;;;0.80;0.50;;;;;;;24.47;98.88;98983.13;7399963;19;20022;-59
2023/07/30 09:39:40;;;;;;;1.00;0.10;;;;;;;24.55;97.66;98986.59;7399269;19;20013;-58
2023/07/30 09:42:07;;;;;;;0.22;0.05;;;;;;;24.54;97.12;98991.53;7402762;19;20017;-58
2023/07/30 09:44:33;;;;;;;0.10;0.10;;;;;;;26.86;88.13;98992.34;7399682;19;20467;-58
2023/07/30 09:47:05;;;;;;;0.10;0.10;;;;;;;24.63;95.11;98990.81;7398697;19;20463;-58
2023/07/30 09:49:31;;;;;;;0.00;0.00;;;;;;;24.02;100.00;98990.94;7398871;19;20006;-58
2023/07/30 09:51:58;;;;;;;0.03;0.03;;;;;;;23.13;100.00;99002.78;7404283;19;20015;-58
2023/07/30 09:54:24;;;;;;;7.22;0.85;;;;;;;23.82;100.00;99003.53;7396144;19;20026;-61
2023/07/30 09:56:50;;;;;;;0.10;0.00;;;;;;;23.35;100.00;99009.59;7399059;19;20019;-59
2023/07/30 09:59:17;;;;;;;0.05;0.00;;;;;;;28.14;87.18;99002.34;7399087;19;20038;-58
2023/07/30 10:01:49;;;;;;;0.00;0.00;;;;;;;25.80;97.17;99007.50;7401410;19;20015;-58
2023/07/30 10:04:18;;;;;;;0.90;0.38;;;;;;;26.71;92.86;99006.97;7398508;19;20077;-58
2023/07/30 10:06:49;;;;;;;0.00;0.00;;;;;;;26.19;88.67;99014.69;7397667;19;20085;-57
2023/07/30 10:09:19;;;;;;;0.65;0.10;;;;;;;31.37;73.31;98998.84;7398744;19;20231;-58
2023/07/30 10:11:48;;;;;;;5.63;0.20;;;;;;;26.25;86.67;99018.72;7402302;19;20010;-58
2023/07/30 10:14:17;;;;;;;0.30;0.10;;;;;;;24.38;99.13;99017.97;7397866;19;20467;-59
2023/07/30 10:16:54;;;;;;;1.35;0.35;;;;;;;23.81;100.00;99015.50;7398401;19;20387;-61
2023/07/30 10:19:25;;;;;;;0.65;0.40;;;;;;;27.07;94.75;98999.47;7398125;19;20338;-58
2023/07/30 10:21:58;;;;;;;4.60;0.57;;;;;;;24.90;100.00;99004.25;7402452;19;20011;-57
2023/07/30 10:24:25;;;;;;;0.10;0.00;;;;;;;24.73;100.00;99014.38;7398424;19;20014;-58
2023/07/30 10:26:57;;;;;;;0.10;0.10;;;;;;;23.56;100.00;98997.81;7397101;19;20018;-59
2023/07/30 10:29:23;;;;;;;0.65;0.30;;;;;;;25.52;100.00;98995.53;7397492;19;20018;-57
2023/07/30 10:31:55;;;;;;;0.20;0.20;;;;;;;31.97;78.70;98983.91;7401165;19;20015;-61
2023/07/30 10:34:25;;;;;;;0.10;0.00;;;;;;;27.25;81.87;99000.66;7396427;19;20062;-58
2023/07/30 10:36:54;;;;;;;0.95;0.35;;;;;;;25.46;95.70;98997.94;7397389;19;20486;-59
2023/07/30 10:39:28;;;;;;;0.00;0.00;;;;;;;25.24;97.85;99001.19;7397066;19;20022;-59
2023/07/30 10:41:56;;;;;;;0.00;0.00;;;;;;;25.13;97.36;99005.38;7401454;19;20070;-58
2023/07/30 10:44:26;;;;;;;0.40;0.10;;;;;;;25.46;99.88;99008.59;7397433;19;20435;-59
2023/07/30 10:46:57;;;;;;;4.47;0.10;;;;;;;25.08;99.49;99006.41;7397247;19;20028;-59
2023/07/30 10:49:23;;;;;;;0.00;0.00;;;;;;;24.86;99.93;99021.81;7397386;19;20494;-58
2023/07/30 10:51:52;;;;;;;0.10;0.10;;;;;;;24.76;97.51;99016.06;7401049;19;20007;-60
2023/07/30 10:54:19;;;;;;;0.00;0.00;;;;;;;23.89;100.00;99016.91;7395920;19;20010;-58
2023/07/30 10:56:45;;;;;;;0.22;0.22;;;;;;;24.06;100.00;99011.19;7396774;19;20077;-58
2023/07/30 10:59:13;;;;;;;0.45;0.25;;;;;;;24.55;98.98;99007.28;7397067;19;20043;-57
2023/07/30 11:01:44;;;;;;;0.30;0.30;;;;;;;23.91;100.00;99014.22;7400430;19;20062;-60
2023/07/30 11:04:11;;;;;;;0.32;0.10;;;;;;;23.25;100.00;99025.78;7397327;19;20010;-58
2023/07/30 11:06:38;;;;;;;0.05;0.05;;;;;;;24.07;100.00;99024.09;7395418;19;20051;-57
2023/07/30 11:09:05;;;;;;;0.10;0.10;;;;;;;24.30;100.00;99026.59;7395307;19;20015;-58
2023/07/30 11:11:31;;;;;;;0.10;0.10;;;;;;;23.60;100.00;99024.47;7396322;19;20015;-60
2023/07/30 11:13:59;;;;;;;3.70;0.17;;;;;;;24.33;100.00;99021.84;7397843;19;20027;-58
2023/07/30 11:16:26;;;;;;;0.28;0.00;;;;;;;24.17;100.00;99012.03;7394971;19;20011;-60
2023/07/30 11:18:52;;;;;;;0.15;0.05;;;;;;;30.96;67.63;99013.28;7395855;19;20021;-59
2023/07/30 11:21:18;;;;;;;0.43;0.20;;;;;;;31.20;56.17;99017.44;7396169;19;20002;-59
2023/07/30 11:23:46;;;;;;;4.20;0.10;;;;;;;27.75;70.47;99024.09;7394968;19;20010;-57
2023/07/30 11:26:17;;;;;;;0.32;0.00;;;;;;;27.67;68.90;99018.59;7399867;19;20014;-57